Time;durP1;ratioP1;P1;durP2;ratioP2;P2;SDS_P1;SDS_P2;PMS_P1;PMS_P2;Temp;Humidity;BMP_temperature;BMP_pressure;BME280_temperature;BME280_humidity;BME280_pressure;Samples;Min_cycle;Max_cycle;Signal;HPM_P1;HPM_P2
2024/04/11 00:01:17;;;;;;;5.68;2.67;;;;;;;;;;5551934;25;20032;-62
2024/04/11 00:03:46;;;;;;;6.90;3.10;;;;;;;;;;5564371;25;20016;-61
2024/04/11 00:06:12;;;;;;;6.43;3.35;;;;;;;;;;5591188;25;20044;-62
2024/04/11 00:08:41;;;;;;;6.53;2.83;;;;;;;;;;5583761;25;21868;-62
2024/04/11 00:11:07;;;;;;;6.18;3.15;;;;;;;;;;5573094;25;20039;-61
2024/04/11 00:13:36;;;;;;;6.40;3.30;;;;;;;;;;5571585;25;20482;-61
2024/04/11 00:16:04;;;;;;;5.57;2.72;;;;;;;;;;5583255;25;20028;-63
2024/04/11 00:18:35;;;;;;;7.13;3.30;;;;;;;;;;5567459;25;20054;-63
2024/04/11 00:21:01;;;;;;;6.65;3.13;;;;;;;;;;5579783;25;20040;-61
2024/04/11 00:23:30;;;;;;;6.80;3.00;;;;;;;;;;5588800;25;20024;-60
2024/04/11 00:25:57;;;;;;;4.65;3.15;;;;;;;;;;5563686;25;20035;-61
2024/04/11 00:28:26;;;;;;;5.95;3.00;;;;;;;;;;5564685;25;20037;-61
2024/04/11 00:30:52;;;;;;;6.10;2.83;;;;;;;;;;5573096;25;20041;-61
2024/04/11 00:33:21;;;;;;;6.18;3.20;;;;;;;;;;5581045;25;20041;-60
2024/04/11 00:35:50;;;;;;;5.55;3.30;;;;;;;;;;5589123;25;20036;-61
2024/04/11 00:38:19;;;;;;;6.30;3.60;;;;;;;;;;5576361;25;20028;-61
2024/04/11 00:40:52;;;;;;;4.93;3.17;;;;;;;;;;5563342;25;20032;-61
2024/04/11 00:43:21;;;;;;;7.03;3.15;;;;;;;;;;5562916;25;20021;-61
2024/04/11 00:45:47;;;;;;;6.78;3.35;;;;;;;;;;5563596;25;20036;-60
2024/04/11 00:48:16;;;;;;;5.43;2.88;;;;;;;;;;5584980;25;20020;-61
2024/04/11 00:50:43;;;;;;;4.97;3.00;;;;;;;;;;5601332;25;20024;-61
2024/04/11 00:53:14;;;;;;;4.13;2.72;;;;;;;;;;5594888;25;20023;-61
2024/04/11 00:55:41;;;;;;;7.05;2.70;;;;;;;;;;5567534;25;20028;-61
2024/04/11 00:58:11;;;;;;;5.03;2.17;;;;;;;;;;5563387;25;20025;-61
2024/04/11 01:00:37;;;;;;;5.80;2.35;;;;;;;;;;5592170;25;20032;-61
2024/04/11 01:03:06;;;;;;;6.68;2.38;;;;;;;;;;5599148;25;20029;-61
2024/04/11 01:05:32;;;;;;;4.78;2.13;;;;;;;;;;5577027;25;20021;-61
2024/04/11 01:08:07;;;;;;;5.53;2.65;;;;;;;;;;5578692;25;20031;-61
2024/04/11 01:10:37;;;;;;;6.55;2.28;;;;;;;;;;5598665;25;20469;-60
2024/04/11 01:13:06;;;;;;;5.05;2.53;;;;;;;;;;5581488;25;20033;-61
2024/04/11 01:15:34;;;;;;;5.85;2.60;;;;;;;;;;5582413;25;20024;-61
2024/04/11 01:18:03;;;;;;;5.20;2.50;;;;;;;;;;5572573;25;20359;-63
2024/04/11 01:20:29;;;;;;;4.32;2.30;;;;;;;;;;5563317;25;20492;-61
2024/04/11 01:23:01;;;;;;;4.95;2.55;;;;;;;;;;5572430;25;20191;-60
2024/04/11 01:25:29;;;;;;;5.75;2.40;;;;;;;;;;5578792;25;20040;-61
2024/04/11 01:27:59;;;;;;;6.22;2.55;;;;;;;;;;5585855;25;20028;-61
2024/04/11 01:30:24;;;;;;;;;;;;;;;;;;5601665;25;20040;-61
2024/04/11 01:32:59;;;;;;;3.95;2.03;;;;;;;;;;5591479;25;19931;-61
2024/04/11 01:35:26;;;;;;;6.20;2.50;;;;;;;;;;5591103;25;20373;-61
2024/04/11 01:37:55;;;;;;;6.35;2.40;;;;;;;;;;5596459;25;20031;-60
2024/04/11 01:40:24;;;;;;;5.63;2.20;;;;;;;;;;5600558;25;20027;-60
2024/04/11 01:42:54;;;;;;;4.18;2.80;;;;;;;;;;5598355;25;20404;-61
2024/04/11 01:45:20;;;;;;;4.68;2.30;;;;;;;;;;5572451;25;20025;-61
2024/04/11 01:47:48;;;;;;;5.20;2.10;;;;;;;;;;5578337;25;20027;-61
2024/04/11 01:50:15;;;;;;;5.70;2.10;;;;;;;;;;5568048;25;20024;-61
2024/04/11 01:52:44;;;;;;;6.85;2.58;;;;;;;;;;5561468;25;20032;-61
2024/04/11 01:55:10;;;;;;;5.05;1.98;;;;;;;;;;5562718;25;20036;-61
2024/04/11 01:57:42;;;;;;;6.40;2.22;;;;;;;;;;5562148;25;20044;-61
2024/04/11 02:00:13;;;;;;;4.43;2.25;;;;;;;;;;5566029;25;20582;-61
2024/04/11 02:02:44;;;;;;;5.60;2.03;;;;;;;;;;5579225;25;19997;-61
2024/04/11 02:05:10;;;;;;;6.45;2.35;;;;;;;;;;5568857;25;20377;-62
2024/04/11 02:07:39;;;;;;;3.40;2.15;;;;;;;;;;5578427;25;20507;-61
2024/04/11 02:10:06;;;;;;;6.80;2.67;;;;;;;;;;5575139;25;20025;-62
2024/04/11 02:12:36;;;;;;;3.65;2.10;;;;;;;;;;5562310;25;20377;-61
2024/04/11 02:15:06;;;;;;;;;;;;;;;;;;5562932;25;20032;-62
2024/04/11 02:17:38;;;;;;;3.85;2.17;;;;;;;;;;5573557;25;20317;-61
2024/04/11 02:20:10;;;;;;;4.88;1.98;;;;;;;;;;5599111;25;20040;-62
2024/04/11 02:22:40;;;;;;;3.88;2.30;;;;;;;;;;5600781;25;20497;-62
2024/04/11 02:25:07;;;;;;;5.10;2.33;;;;;;;;;;5600196;25;20024;-63
2024/04/11 02:27:36;;;;;;;4.75;1.95;;;;;;;;;;5594319;25;20037;-61
2024/04/11 02:30:03;;;;;;;3.85;1.75;;;;;;;;;;5586327;25;20048;-61
2024/04/11 02:32:32;;;;;;;4.70;1.88;;;;;;;;;;5568991;25;20029;-61
2024/04/11 02:35:05;;;;;;;5.10;2.00;;;;;;;;;;5562093;25;20041;-61
2024/04/11 02:37:34;;;;;;;2.88;1.63;;;;;;;;;;5562974;25;20028;-60
2024/04/11 02:40:00;;;;;;;5.18;2.30;;;;;;;;;;5571853;25;20021;-61
2024/04/11 02:42:29;;;;;;;6.25;2.28;;;;;;;;;;5567491;25;20390;-61
2024/04/11 02:44:56;;;;;;;5.55;2.55;;;;;;;;;;5561358;25;20032;-61
2024/04/11 02:47:25;;;;;;;5.68;2.45;;;;;;;;;;5564455;25;20021;-62
2024/04/11 02:49:51;;;;;;;4.85;2.40;;;;;;;;;;5572111;25;20020;-62
2024/04/11 02:52:23;;;;;;;5.88;2.33;;;;;;;;;;5575352;25;20486;-62
2024/04/11 02:54:50;;;;;;;3.95;1.98;;;;;;;;;;5561570;25;20037;-61
2024/04/11 02:57:18;;;;;;;3.42;1.95;;;;;;;;;;5561646;25;20028;-61
2024/04/11 02:59:45;;;;;;;5.20;2.00;;;;;;;;;;5580300;25;20024;-60
2024/04/11 03:02:13;;;;;;;4.38;2.10;;;;;;;;;;5570473;25;20037;-61
2024/04/11 03:04:39;;;;;;;4.97;2.30;;;;;;;;;;5563559;25;20029;-60
2024/04/11 03:07:08;;;;;;;5.35;2.20;;;;;;;;;;5564806;25;20037;-61
2024/04/11 03:09:37;;;;;;;7.50;2.33;;;;;;;;;;5574752;25;20040;-61
2024/04/11 03:12:06;;;;;;;3.38;1.40;;;;;;;;;;5579333;25;20040;-60
2024/04/11 03:14:32;;;;;;;3.38;1.58;;;;;;;;;;5583194;25;20032;-60
2024/04/11 03:17:01;;;;;;;3.30;1.55;;;;;;;;;;5600710;25;20168;-61
2024/04/11 03:19:27;;;;;;;4.72;1.50;;;;;;;;;;5603581;25;20020;-62
2024/04/11 03:21:56;;;;;;;3.00;1.63;;;;;;;;;;5602163;25;20028;-65
2024/04/11 03:24:22;;;;;;;5.25;1.77;;;;;;;;;;5601943;25;20024;-60
2024/04/11 03:26:54;;;;;;;3.38;1.48;;;;;;;;;;5585657;25;20037;-61
2024/04/11 03:29:20;;;;;;;3.55;1.70;;;;;;;;;;5565440;25;20029;-61
2024/04/11 03:31:50;;;;;;;5.43;1.90;;;;;;;;;;5571186;25;20028;-60
2024/04/11 03:34:17;;;;;;;3.92;1.80;;;;;;;;;;5578305;25;20509;-60
2024/04/11 03:36:48;;;;;;;5.13;1.77;;;;;;;;;;5578827;25;20052;-60
2024/04/11 03:39:15;;;;;;;3.92;1.67;;;;;;;;;;5583168;25;20036;-62
2024/04/11 03:41:44;;;;;;;5.18;2.20;;;;;;;;;;5601982;25;20043;-61
2024/04/11 03:44:13;;;;;;;;;;;;;;;;;;5603412;25;20024;-61
2024/04/11 03:46:44;;;;;;;4.75;1.90;;;;;;;;;;5586277;25;20295;-60
2024/04/11 03:49:13;;;;;;;4.80;1.85;;;;;;;;;;5585322;25;20036;-61
2024/04/11 03:51:41;;;;;;;5.15;1.95;;;;;;;;;;5601141;25;20032;-61
2024/04/11 03:54:10;;;;;;;5.47;1.88;;;;;;;;;;5602211;25;20504;-61
2024/04/11 03:56:37;;;;;;;3.05;1.67;;;;;;;;;;5592594;25;20040;-61
2024/04/11 03:59:06;;;;;;;4.68;1.48;;;;;;;;;;5581792;25;20034;-63
2024/04/11 04:01:33;;;;;;;3.00;1.50;;;;;;;;;;5590110;25;20048;-61
2024/04/11 04:04:05;;;;;;;5.55;2.20;;;;;;;;;;5578869;25;20033;-62
2024/04/11 04:06:33;;;;;;;3.25;1.70;;;;;;;;;;5583116;25;20485;-62
2024/04/11 04:09:07;;;;;;;4.68;1.80;;;;;;;;;;5581603;25;20587;-62
2024/04/11 04:11:37;;;;;;;4.05;1.88;;;;;;;;;;5572147;25;20040;-61
2024/04/11 04:14:03;;;;;;;4.32;1.83;;;;;;;;;;5579521;25;20025;-62
2024/04/11 04:16:32;;;;;;;3.13;1.60;;;;;;;;;;5570558;25;20463;-62
2024/04/11 04:19:02;;;;;;;4.93;1.60;;;;;;;;;;5575347;25;20033;-62
2024/04/11 04:21:31;;;;;;;4.70;1.80;;;;;;;;;;5569588;25;20032;-61
2024/04/11 04:24:02;;;;;;;4.00;1.58;;;;;;;;;;5575155;25;20122;-62
2024/04/11 04:26:33;;;;;;;4.05;1.52;;;;;;;;;;5585965;25;20035;-65
2024/04/11 04:28:59;;;;;;;5.07;1.80;;;;;;;;;;5577446;25;20370;-62
2024/04/11 04:31:28;;;;;;;5.80;1.80;;;;;;;;;;5570902;25;20450;-62
2024/04/11 04:33:56;;;;;;;6.70;1.92;;;;;;;;;;5564126;25;20034;-64
2024/04/11 04:36:28;;;;;;;4.13;1.55;;;;;;;;;;5572672;25;20375;-64
2024/04/11 04:38:56;;;;;;;3.30;1.35;;;;;;;;;;5578694;25;20025;-64
2024/04/11 04:41:26;;;;;;;2.22;1.23;;;;;;;;;;5563642;25;20670;-64
2024/04/11 04:43:54;;;;;;;7.13;1.83;;;;;;;;;;5564656;25;20032;-66
2024/04/11 04:46:23;;;;;;;3.90;1.73;;;;;;;;;;5582237;25;20041;-64
2024/04/11 04:48:50;;;;;;;3.67;1.52;;;;;;;;;;5581317;25;20029;-64
2024/04/11 04:51:19;;;;;;;4.45;1.50;;;;;;;;;;5580702;25;20033;-66
2024/04/11 04:53:50;;;;;;;3.40;1.35;;;;;;;;;;5586997;25;20024;-65
2024/04/11 04:56:19;;;;;;;4.60;1.38;;;;;;;;;;5572506;25;20036;-65
2024/04/11 04:58:46;;;;;;;4.80;1.58;;;;;;;;;;5564242;25;20470;-63
2024/04/11 05:01:15;;;;;;;3.17;1.48;;;;;;;;;;5563823;25;20032;-64
2024/04/11 05:03:43;;;;;;;4.07;1.40;;;;;;;;;;5563658;25;20363;-64
2024/04/11 05:06:13;;;;;;;4.40;1.45;;;;;;;;;;5562687;25;20478;-64
2024/04/11 05:08:45;;;;;;;4.60;1.42;;;;;;;;;;5567071;25;20031;-64
2024/04/11 05:11:17;;;;;;;4.22;1.50;;;;;;;;;;5562834;25;20389;-64
2024/04/11 05:13:44;;;;;;;3.97;1.30;;;;;;;;;;5557613;25;20035;-64
2024/04/11 05:16:18;;;;;;;5.35;1.52;;;;;;;;;;5565603;25;20036;-64
2024/04/11 05:18:46;;;;;;;2.85;1.20;;;;;;;;;;5561664;25;20025;-64
2024/04/11 05:21:18;;;;;;;4.25;1.20;;;;;;;;;;5558034;25;20024;-64
2024/04/11 05:23:44;;;;;;;4.70;1.23;;;;;;;;;;5565186;25;20482;-64
2024/04/11 05:26:14;;;;;;;3.50;1.52;;;;;;;;;;5562642;25;20025;-64
2024/04/11 05:28:44;;;;;;;3.92;1.20;;;;;;;;;;5562786;25;20041;-66
2024/04/11 05:31:16;;;;;;;3.35;1.40;;;;;;;;;;5562270;25;20029;-65
2024/04/11 05:33:43;;;;;;;4.15;1.50;;;;;;;;;;5568514;25;20028;-65
2024/04/11 05:36:12;;;;;;;3.08;1.00;;;;;;;;;;5560063;25;20470;-67
2024/04/11 05:38:38;;;;;;;7.20;1.80;;;;;;;;;;5563844;25;20025;-66
2024/04/11 05:41:09;;;;;;;2.67;1.10;;;;;;;;;;5561468;25;20033;-64
2024/04/11 05:43:35;;;;;;;6.20;1.45;;;;;;;;;;5563752;25;20032;-65
2024/04/11 05:46:07;;;;;;;3.13;1.20;;;;;;;;;;5562159;25;20028;-65
2024/04/11 05:48:33;;;;;;;5.32;1.70;;;;;;;;;;5564923;25;20025;-66
2024/04/11 05:51:05;;;;;;;4.90;1.50;;;;;;;;;;5565263;25;20025;-64
2024/04/11 05:53:31;;;;;;;5.15;1.35;;;;;;;;;;5562759;25;20361;-65
2024/04/11 05:56:00;;;;;;;6.78;1.30;;;;;;;;;;5562312;25;20029;-65
2024/04/11 05:58:26;;;;;;;4.65;1.38;;;;;;;;;;5566450;25;20020;-66
2024/04/11 06:00:56;;;;;;;3.45;1.33;;;;;;;;;;5560494;25;20116;-64
2024/04/11 06:03:27;;;;;;;5.07;1.42;;;;;;;;;;5562181;25;20037;-64
2024/04/11 06:05:57;;;;;;;4.10;1.40;;;;;;;;;;5562227;25;20474;-64
2024/04/11 06:08:23;;;;;;;4.15;1.33;;;;;;;;;;5565373;25;20471;-65
2024/04/11 06:10:52;;;;;;;5.05;1.35;;;;;;;;;;5568524;25;20028;-62
2024/04/11 06:13:18;;;;;;;6.25;1.50;;;;;;;;;;5565866;25;20364;-64
2024/04/11 06:15:47;;;;;;;5.05;1.20;;;;;;;;;;5560098;25;20030;-65
2024/04/11 06:18:15;;;;;;;5.25;1.70;;;;;;;;;;5562334;25;20387;-65
2024/04/11 06:20:46;;;;;;;4.03;1.30;;;;;;;;;;5562321;25;20040;-64
2024/04/11 06:23:15;;;;;;;4.05;1.45;;;;;;;;;;5564697;25;20037;-65
2024/04/11 06:25:45;;;;;;;3.88;1.45;;;;;;;;;;5556871;25;20028;-64
2024/04/11 06:28:14;;;;;;;10.75;1.60;;;;;;;;;;5561992;25;20029;-65
2024/04/11 06:30:43;;;;;;;4.38;1.80;;;;;;;;;;5565559;25;20043;-64
2024/04/11 06:33:10;;;;;;;5.10;1.42;;;;;;;;;;5561984;25;20450;-65
2024/04/11 06:35:40;;;;;;;4.18;1.15;;;;;;;;;;5561690;25;20036;-66
2024/04/11 06:38:09;;;;;;;6.55;1.50;;;;;;;;;;5563175;25;20025;-69
2024/04/11 06:40:38;;;;;;;5.25;1.40;;;;;;;;;;5566304;25;20047;-64
2024/04/11 06:43:07;;;;;;;4.13;1.07;;;;;;;;;;5572345;25;20367;-64
2024/04/11 06:45:36;;;;;;;5.93;1.75;;;;;;;;;;5562373;25;20494;-64
2024/04/11 06:48:03;;;;;;;3.80;1.50;;;;;;;;;;5565432;25;20024;-66
2024/04/11 06:50:31;;;;;;;5.70;1.60;;;;;;;;;;5564533;25;20025;-65
2024/04/11 06:52:59;;;;;;;3.87;1.30;;;;;;;;;;5565905;25;20123;-62
2024/04/11 06:55:30;;;;;;;4.78;1.50;;;;;;;;;;5562771;25;20016;-64
2024/04/11 06:57:56;;;;;;;3.38;1.40;;;;;;;;;;5565345;25;20025;-64
2024/04/11 07:00:28;;;;;;;3.60;1.17;;;;;;;;;;5569985;25;20359;-65
2024/04/11 07:02:54;;;;;;;6.68;1.30;;;;;;;;;;5584608;25;20024;-64
2024/04/11 07:05:25;;;;;;;4.32;1.40;;;;;;;;;;5602527;25;20366;-64
2024/04/11 07:07:54;;;;;;;4.40;1.55;;;;;;;;;;5603223;25;20024;-64
2024/04/11 07:10:32;;;;;;;6.00;1.60;;;;;;;;;;5590578;25;20037;-64
2024/04/11 07:13:01;;;;;;;3.28;1.20;;;;;;;;;;5589143;25;20354;-63
2024/04/11 07:15:34;;;;;;;4.43;1.37;;;;;;;;;;5573800;25;20064;-64
2024/04/11 07:18:01;;;;;;;4.20;1.70;;;;;;;;;;5565212;25;20482;-66
2024/04/11 07:20:31;;;;;;;3.72;1.40;;;;;;;;;;5564790;25;20033;-62
2024/04/11 07:22:58;;;;;;;3.97;1.58;;;;;;;;;;5566850;25;20025;-63
2024/04/11 07:25:30;;;;;;;3.95;1.52;;;;;;;;;;5572435;25;20045;-65
2024/04/11 07:27:56;;;;;;;3.95;1.20;;;;;;;;;;5564570;25;20020;-68
2024/04/11 07:30:29;;;;;;;4.65;1.25;;;;;;;;;;5564010;25;20507;-65
2024/04/11 07:32:56;;;;;;;4.05;1.20;;;;;;;;;;5572196;25;20351;-64
2024/04/11 07:35:26;;;;;;;5.55;1.58;;;;;;;;;;5586206;25;20367;-64
2024/04/11 07:37:53;;;;;;;3.95;1.45;;;;;;;;;;5602855;25;20032;-65
2024/04/11 07:40:32;;;;;;;3.33;1.38;;;;;;;;;;5577829;25;20021;-66
2024/04/11 07:43:05;;;;;;;;;;;;;;;;;;5565008;25;20037;-62
2024/04/11 07:45:40;;;;;;;3.83;1.52;;;;;;;;;;5564364;25;19958;-65
2024/04/11 07:48:08;;;;;;;6.55;1.50;;;;;;;;;;5564543;25;20025;-65
2024/04/11 07:50:37;;;;;;;5.10;1.40;;;;;;;;;;5567267;25;20044;-66
2024/04/11 07:53:06;;;;;;;5.20;1.55;;;;;;;;;;5571134;25;20503;-66
2024/04/11 07:55:36;;;;;;;4.78;1.58;;;;;;;;;;5601396;25;20044;-66
2024/04/11 07:58:05;;;;;;;5.38;1.63;;;;;;;;;;5601707;25;20028;-65
2024/04/11 08:00:39;;;;;;;5.63;1.80;;;;;;;;;;5561519;25;20038;-66
2024/04/11 08:03:08;;;;;;;5.90;1.80;;;;;;;;;;5529711;25;20390;-63
2024/04/11 08:05:37;;;;;;;;;;;;;;;;;;5543449;25;20029;-64
2024/04/11 08:08:04;;;;;;;6.50;2.35;;;;;;;;;;5534381;25;19955;-64
2024/04/11 08:10:35;;;;;;;4.68;1.90;;;;;;;;;;5526580;26;20025;-64
2024/04/11 08:13:01;;;;;;;6.10;2.08;;;;;;;;;;5527173;26;20021;-64
2024/04/11 08:15:30;;;;;;;6.45;1.90;;;;;;;;;;5532545;25;20040;-64
2024/04/11 08:17:56;;;;;;;4.43;1.80;;;;;;;;;;5535403;25;20025;-64
2024/04/11 08:20:29;;;;;;;7.18;1.80;;;;;;;;;;5525716;25;20034;-64
2024/04/11 08:22:57;;;;;;;5.20;1.77;;;;;;;;;;5529344;25;20029;-65
2024/04/11 08:25:26;;;;;;;5.95;1.65;;;;;;;;;;5563768;25;20040;-64
2024/04/11 08:27:54;;;;;;;3.23;1.43;;;;;;;;;;5564485;25;20033;-65
2024/04/11 08:30:23;;;;;;;3.22;1.60;;;;;;;;;;5564143;25;20377;-63
2024/04/11 08:32:49;;;;;;;4.80;1.80;;;;;;;;;;5556633;25;20034;-63
2024/04/11 08:35:19;;;;;;;4.72;1.48;;;;;;;;;;5547512;25;20049;-63
2024/04/11 08:37:51;;;;;;;5.95;1.73;;;;;;;;;;5533124;25;20052;-63
2024/04/11 08:40:20;;;;;;;4.75;1.30;;;;;;;;;;5526577;26;20023;-64
2024/04/11 08:42:47;;;;;;;4.50;1.50;;;;;;;;;;5526081;25;20021;-62
2024/04/11 08:45:16;;;;;;;5.40;1.50;;;;;;;;;;5536835;25;20028;-64
2024/04/11 08:47:45;;;;;;;5.00;1.63;;;;;;;;;;5541608;25;20041;-63
2024/04/11 08:50:14;;;;;;;6.07;1.85;;;;;;;;;;5535922;25;20029;-64
2024/04/11 08:52:45;;;;;;;5.20;1.83;;;;;;;;;;5526035;26;20033;-63
2024/04/11 08:55:17;;;;;;;4.97;1.55;;;;;;;;;;5525655;26;20033;-63
2024/04/11 08:57:44;;;;;;;5.97;1.77;;;;;;;;;;5526286;26;20482;-63
2024/04/11 09:00:21;;;;;;;4.07;1.48;;;;;;;;;;5548469;25;20486;-64
2024/04/11 09:02:48;;;;;;;7.15;1.40;;;;;;;;;;5581241;25;20461;-64
2024/04/11 09:05:16;;;;;;;5.20;1.60;;;;;;;;;;5586230;25;20035;-65
2024/04/11 09:07:44;;;;;;;5.75;1.83;;;;;;;;;;5570574;25;20025;-67
2024/04/11 09:10:13;;;;;;;4.35;1.70;;;;;;;;;;5562980;25;20028;-64
2024/04/11 09:12:43;;;;;;;5.95;1.50;;;;;;;;;;5562937;25;20041;-64
2024/04/11 09:15:11;;;;;;;;;;;;;;;;;;5563253;25;20041;-63
2024/04/11 09:17:38;;;;;;;7.15;1.60;;;;;;;;;;5567665;25;19958;-63
2024/04/11 09:20:12;;;;;;;6.13;1.65;;;;;;;;;;5569399;25;20478;-65
2024/04/11 09:22:46;;;;;;;6.13;1.45;;;;;;;;;;5577795;25;20024;-65
2024/04/11 09:25:27;;;;;;;4.22;1.40;;;;;;;;;;5599549;25;20033;-68
2024/04/11 09:27:58;;;;;;;6.72;1.88;;;;;;;;;;5597999;25;20489;-64
2024/04/11 09:30:29;;;;;;;7.88;1.70;;;;;;;;;;5563558;25;20052;-64
2024/04/11 09:33:04;;;;;;;7.43;1.88;;;;;;;;;;5563654;25;20021;-64
2024/04/11 09:35:40;;;;;;;4.75;1.50;;;;;;;;;;5579031;25;20032;-64
2024/04/11 09:38:10;;;;;;;5.63;1.67;;;;;;;;;;5593182;25;20469;-64
2024/04/11 09:40:38;;;;;;;;;;;;;;;;;;5601601;25;20021;-64
2024/04/11 09:43:07;;;;;;;7.40;1.63;;;;;;;;;;5600491;25;19955;-64
2024/04/11 09:45:41;;;;;;;4.18;1.63;;;;;;;;;;5590746;25;20027;-66
2024/04/11 09:48:12;;;;;;;4.88;1.60;;;;;;;;;;5564362;25;20025;-64
2024/04/11 09:50:42;;;;;;;4.47;1.30;;;;;;;;;;5562770;25;20029;-64
2024/04/11 09:53:13;;;;;;;3.28;1.30;;;;;;;;;;5563244;25;20374;-64
2024/04/11 09:55:41;;;;;;;4.18;1.35;;;;;;;;;;5562719;25;20494;-64
2024/04/11 09:58:10;;;;;;;4.33;1.40;;;;;;;;;;5567692;25;20020;-64
2024/04/11 10:00:48;;;;;;;5.28;1.75;;;;;;;;;;5578258;25;20365;-62
2024/04/11 10:03:18;;;;;;;4.07;1.58;;;;;;;;;;5562398;25;20020;-64
2024/04/11 10:05:50;;;;;;;5.57;1.58;;;;;;;;;;5561768;25;20021;-64
2024/04/11 10:08:23;;;;;;;5.20;1.80;;;;;;;;;;5562504;25;20027;-63
2024/04/11 10:10:53;;;;;;;4.63;1.50;;;;;;;;;;5570771;25;20024;-63
2024/04/11 10:13:23;;;;;;;6.95;2.15;;;;;;;;;;5561592;25;20400;-64
2024/04/11 10:15:59;;;;;;;3.17;1.27;;;;;;;;;;5561238;25;20032;-63
2024/04/11 10:18:32;;;;;;;7.03;1.77;;;;;;;;;;5583697;25;20489;-63
2024/04/11 10:21:05;;;;;;;4.40;1.60;;;;;;;;;;5579124;25;21553;-63
2024/04/11 10:23:32;;;;;;;7.30;1.92;;;;;;;;;;5563663;25;20466;-63
2024/04/11 10:26:02;;;;;;;6.00;1.50;;;;;;;;;;5561149;25;20040;-63
2024/04/11 10:28:41;;;;;;;5.13;1.58;;;;;;;;;;5562412;25;20033;-63
2024/04/11 10:31:11;;;;;;;6.13;1.58;;;;;;;;;;5569313;25;20036;-63
2024/04/11 10:33:47;;;;;;;5.68;1.70;;;;;;;;;;5583950;25;20493;-63
2024/04/11 10:36:17;;;;;;;6.80;1.90;;;;;;;;;;5620777;25;20043;-64
2024/04/11 10:38:43;;;;;;;4.50;1.40;;;;;;;;;;5637478;25;20032;-63
2024/04/11 10:41:16;;;;;;;4.25;1.65;;;;;;;;;;5628139;25;20031;-62
2024/04/11 10:43:45;;;;;;;3.60;1.45;;;;;;;;;;5584238;25;20025;-65
2024/04/11 10:46:14;;;;;;;6.20;1.52;;;;;;;;;;5590663;25;20371;-63
2024/04/11 10:48:40;;;;;;;4.28;1.10;;;;;;;;;;5599452;25;20032;-63
2024/04/11 10:51:13;;;;;;;3.42;1.50;;;;;;;;;;5599160;25;20040;-64
2024/04/11 10:53:47;;;;;;;5.22;1.63;;;;;;;;;;5572719;25;20023;-69
2024/04/11 10:56:22;;;;;;;2.95;1.23;;;;;;;;;;5593004;25;20032;-62
2024/04/11 10:58:53;;;;;;;4.35;1.55;;;;;;;;;;5577523;25;20347;-66
2024/04/11 11:01:26;;;;;;;7.13;1.60;;;;;;;;;;5535782;25;20406;-65
2024/04/11 11:03:57;;;;;;;4.32;1.60;;;;;;;;;;5524537;26;20021;-63
2024/04/11 11:06:34;;;;;;;2.97;1.48;;;;;;;;;;5523687;26;20029;-62
2024/04/11 11:09:10;;;;;;;4.95;1.33;;;;;;;;;;5528998;25;20037;-64
2024/04/11 11:11:40;;;;;;;4.93;1.40;;;;;;;;;;5537119;25;20038;-63
2024/04/11 11:14:10;;;;;;;2.53;1.10;;;;;;;;;;5530540;25;20033;-64
2024/04/11 11:16:43;;;;;;;4.13;1.30;;;;;;;;;;5522824;26;20033;-65
2024/04/11 11:19:11;;;;;;;4.75;1.35;;;;;;;;;;5526280;25;20506;-63
2024/04/11 11:21:42;;;;;;;4.75;1.23;;;;;;;;;;5547013;25;20037;-63
2024/04/11 11:24:13;;;;;;;5.13;1.20;;;;;;;;;;5531254;25;20375;-63
2024/04/11 11:26:46;;;;;;;3.05;1.48;;;;;;;;;;5542425;25;20029;-63
2024/04/11 11:29:20;;;;;;;4.68;1.20;;;;;;;;;;5565235;25;20029;-64
2024/04/11 11:31:50;;;;;;;4.72;1.25;;;;;;;;;;5563790;25;20103;-64
2024/04/11 11:34:17;;;;;;;5.97;1.33;;;;;;;;;;5564922;25;20021;-64
2024/04/11 11:36:47;;;;;;;3.90;1.23;;;;;;;;;;5556300;25;20048;-63
2024/04/11 11:39:17;;;;;;;4.20;1.33;;;;;;;;;;5564479;25;20382;-63
2024/04/11 11:41:47;;;;;;;5.82;1.40;;;;;;;;;;5562043;25;20041;-63
2024/04/11 11:44:21;;;;;;;3.80;1.58;;;;;;;;;;5527867;26;20038;-63
2024/04/11 11:47:05;;;;;;;5.80;1.58;;;;;;;;;;5530433;25;20045;-63
2024/04/11 11:49:35;;;;;;;4.82;1.45;;;;;;;;;;5548143;25;20473;-63
2024/04/11 11:52:04;;;;;;;5.78;1.60;;;;;;;;;;5564316;25;20025;-63
2024/04/11 11:54:34;;;;;;;4.20;1.50;;;;;;;;;;5564716;25;20025;-63
2024/04/11 11:57:17;;;;;;;5.40;1.60;;;;;;;;;;5556957;25;20454;-64
2024/04/11 11:59:47;;;;;;;4.40;1.45;;;;;;;;;;5540435;25;20041;-63
2024/04/11 12:02:16;;;;;;;6.05;1.70;;;;;;;;;;5540166;25;20029;-63
2024/04/11 12:04:44;;;;;;;5.65;1.48;;;;;;;;;;5536881;25;20017;-63
2024/04/11 12:07:13;;;;;;;5.97;1.73;;;;;;;;;;5543745;25;20470;-63
2024/04/11 12:09:43;;;;;;;5.95;1.60;;;;;;;;;;5540991;25;20025;-63
2024/04/11 12:12:20;;;;;;;;;;;;;;;;;;5533207;25;20030;-63
2024/04/11 12:14:54;;;;;;;5.22;1.50;;;;;;;;;;5526990;26;19952;-63
2024/04/11 12:17:24;;;;;;;4.05;1.50;;;;;;;;;;5527101;26;20033;-65
2024/04/11 12:19:52;;;;;;;3.80;1.27;;;;;;;;;;5527122;25;20042;-63
2024/04/11 12:22:20;;;;;;;5.68;1.73;;;;;;;;;;5542134;25;20509;-62
2024/04/11 12:24:50;;;;;;;4.95;1.70;;;;;;;;;;5540536;25;20021;-63
2024/04/11 12:27:23;;;;;;;4.78;1.80;;;;;;;;;;5540624;25;20025;-63
2024/04/11 12:29:52;;;;;;;5.55;1.63;;;;;;;;;;5547080;25;20482;-63
2024/04/11 12:32:23;;;;;;;5.22;1.60;;;;;;;;;;5550287;25;20040;-63
2024/04/11 12:34:49;;;;;;;6.15;1.60;;;;;;;;;;5563507;25;20037;-63
2024/04/11 12:37:24;;;;;;;4.72;1.38;;;;;;;;;;5554123;25;20375;-63
2024/04/11 12:39:53;;;;;;;7.00;1.85;;;;;;;;;;5529694;25;20451;-63
2024/04/11 12:42:22;;;;;;;;;;;;;;;;;;5526221;26;20382;-63
2024/04/11 12:44:48;;;;;;;4.10;1.70;;;;;;;;;;5526239;25;19952;-64
2024/04/11 12:47:23;;;;;;;5.53;1.75;;;;;;;;;;5526473;25;20475;-65
2024/04/11 12:49:49;;;;;;;4.05;1.67;;;;;;;;;;5548123;25;20048;-67
2024/04/11 12:52:22;;;;;;;5.32;1.42;;;;;;;;;;5536218;25;20389;-65
2024/04/11 12:54:49;;;;;;;6.20;1.45;;;;;;;;;;5524733;26;20025;-64
2024/04/11 12:57:17;;;;;;;4.75;1.65;;;;;;;;;;5525479;26;20378;-64
2024/04/11 12:59:46;;;;;;;3.80;1.70;;;;;;;;;;5547688;25;20439;-63
2024/04/11 13:02:19;;;;;;;4.37;1.60;;;;;;;;;;5581541;25;20370;-65
2024/04/11 13:04:54;;;;;;;5.93;1.52;;;;;;;;;;5578499;25;20028;-64
2024/04/11 13:07:24;;;;;;;5.22;1.70;;;;;;;;;;5566354;25;20024;-65
2024/04/11 13:09:53;;;;;;;5.85;1.90;;;;;;;;;;5562792;25;20033;-64
2024/04/11 13:12:22;;;;;;;3.67;1.58;;;;;;;;;;5563136;25;20063;-65
2024/04/11 13:14:57;;;;;;;5.72;1.65;;;;;;;;;;5566658;25;20366;-64
2024/04/11 13:17:26;;;;;;;4.45;1.52;;;;;;;;;;5574341;25;20489;-65
2024/04/11 13:19:57;;;;;;;5.05;1.75;;;;;;;;;;5574391;25;20474;-65
2024/04/11 13:22:26;;;;;;;6.07;1.83;;;;;;;;;;5565353;25;20033;-63
2024/04/11 13:24:59;;;;;;;;;;;;;;;;;;5563807;25;20032;-63
2024/04/11 13:27:37;;;;;;;5.85;1.90;;;;;;;;;;5580750;25;20384;-66
2024/04/11 13:30:11;;;;;;;4.65;2.00;;;;;;;;;;5566231;25;20024;-63
2024/04/11 13:32:41;;;;;;;4.60;2.10;;;;;;;;;;5562935;25;20034;-65
2024/04/11 13:35:08;;;;;;;;;;;;;;;;;;5563341;25;20041;-63
2024/04/11 13:37:47;;;;;;;6.68;1.58;;;;;;;;;;5571201;25;20033;-63
2024/04/11 13:43:03;;;;;;;4.15;1.60;;;;;;;;;;5552994;25;20024;-64
2024/04/11 13:45:40;;;;;;;3.35;1.45;;;;;;;;;;5600956;25;20032;-65
2024/04/11 13:48:07;;;;;;;5.70;1.85;;;;;;;;;;5577196;25;20107;-63
2024/04/11 13:50:43;;;;;;;4.03;1.65;;;;;;;;;;5573065;25;20025;-63
2024/04/11 13:53:14;;;;;;;4.40;1.90;;;;;;;;;;5562523;25;20033;-64
2024/04/11 13:55:44;;;;;;;5.15;2.00;;;;;;;;;;5562303;25;20037;-64
2024/04/11 13:58:10;;;;;;;6.43;2.00;;;;;;;;;;5577500;25;20032;-63
2024/04/11 14:00:50;;;;;;;3.83;1.83;;;;;;;;;;5578738;25;20029;-64
2024/04/11 14:03:23;;;;;;;2.50;1.55;;;;;;;;;;5562620;25;20028;-64
2024/04/11 14:06:22;;;;;;;4.22;1.90;;;;;;;;;;5564825;25;20051;-64
2024/04/11 14:08:52;;;;;;;5.13;2.10;;;;;;;;;;5562708;25;20413;-64
2024/04/11 14:11:25;;;;;;;3.78;1.60;;;;;;;;;;5561556;25;20037;-64
2024/04/11 14:13:53;;;;;;;6.80;2.20;;;;;;;;;;5562633;25;20033;-64
2024/04/11 14:16:28;;;;;;;7.97;1.88;;;;;;;;;;5578242;25;20449;-63
2024/04/11 14:18:59;;;;;;;4.57;1.88;;;;;;;;;;5600620;25;20494;-63
2024/04/11 14:21:48;;;;;;;4.65;2.05;;;;;;;;;;5573404;25;20490;-65
2024/04/11 14:24:25;;;;;;;5.30;2.30;;;;;;;;;;5562293;25;20032;-63
2024/04/11 14:26:58;;;;;;;3.90;1.70;;;;;;;;;;5573684;25;20381;-64
2024/04/11 14:29:24;;;;;;;4.72;2.05;;;;;;;;;;5572721;25;21415;-63
2024/04/11 14:31:53;;;;;;;4.97;1.70;;;;;;;;;;5586243;25;20498;-65
2024/04/11 14:34:22;;;;;;;5.15;1.90;;;;;;;;;;5583983;25;20340;-63
2024/04/11 14:39:36;;;;;;;4.75;1.90;;;;;;;;;;5560200;25;20379;-62
2024/04/11 14:42:04;;;;;;;4.75;1.65;;;;;;;;;;5561848;25;20482;-63
2024/04/11 14:44:36;;;;;;;4.38;2.03;;;;;;;;;;5561926;25;20486;-63
2024/04/11 14:47:04;;;;;;;7.00;2.03;;;;;;;;;;5573340;25;20036;-63
2024/04/11 14:49:34;;;;;;;2.90;1.83;;;;;;;;;;5588134;25;20029;-63
2024/04/11 14:52:04;;;;;;;4.38;1.67;;;;;;;;;;5599669;25;20024;-64
2024/04/11 14:54:46;;;;;;;2.55;1.67;;;;;;;;;;5597117;25;20032;-63
2024/04/11 14:57:12;;;;;;;3.20;1.60;;;;;;;;;;5584998;25;20024;-64
2024/04/11 14:59:42;;;;;;;5.57;1.83;;;;;;;;;;5600720;25;20024;-63
2024/04/11 15:02:11;;;;;;;3.95;2.20;;;;;;;;;;5603225;25;20027;-65
2024/04/11 15:04:42;;;;;;;3.33;1.55;;;;;;;;;;5589453;25;20024;-63
2024/04/11 15:07:10;;;;;;;4.13;1.60;;;;;;;;;;5583075;25;20028;-63